Time;durP1;ratioP1;P1;durP2;ratioP2;P2;SDS_P1;SDS_P2;PMS_P1;PMS_P2;Temp;Humidity;BMP_temperature;BMP_pressure;BME280_temperature;BME280_humidity;BME280_pressure;Samples;Min_cycle;Max_cycle;Signal;HPM_P1;HPM_P2
2023/07/26 00:00:44;;;;;;;3.50;1.50;;;16.30;99.90;;;;;;4998465;28;20158;-71
2023/07/26 00:03:09;;;;;;;3.05;1.20;;;16.20;99.90;;;;;;4997281;28;20030;-71
2023/07/26 00:05:35;;;;;;;3.42;1.63;;;16.20;99.90;;;;;;4997804;28;20037;-71
2023/07/26 00:08:00;;;;;;;6.18;2.13;;;16.00;99.90;;;;;;4996886;28;20026;-71
2023/07/26 00:10:26;;;;;;;3.15;1.40;;;16.00;99.90;;;;;;4996829;28;20025;-71
2023/07/26 00:12:51;;;;;;;6.60;1.33;;;15.90;99.90;;;;;;4997427;28;20030;-71
2023/07/26 00:15:17;;;;;;;2.97;1.45;;;15.90;99.90;;;;;;4996937;28;20026;-71
2023/07/26 00:17:42;;;;;;;1.65;1.33;;;15.90;99.90;;;;;;4998001;28;20065;-71
2023/07/26 00:20:08;;;;;;;3.08;1.42;;;15.80;99.90;;;;;;4997771;28;20061;-71
2023/07/26 00:22:34;;;;;;;2.80;1.40;;;15.80;99.90;;;;;;4997558;28;20027;-71
2023/07/26 00:25:00;;;;;;;2.17;1.17;;;15.70;99.90;;;;;;4997025;28;20097;-71
2023/07/26 00:27:26;;;;;;;1.90;1.38;;;15.70;99.90;;;;;;4996572;28;20018;-71
2023/07/26 00:29:51;;;;;;;4.45;1.77;;;15.70;99.90;;;;;;4996654;28;20049;-71
2023/07/26 00:32:17;;;;;;;6.18;1.55;;;15.60;99.90;;;;;;4996668;28;20022;-71
2023/07/26 00:34:42;;;;;;;5.55;2.25;;;15.60;99.90;;;;;;4996690;28;20038;-71
2023/07/26 00:37:08;;;;;;;3.88;1.90;;;15.60;99.90;;;;;;4996915;28;20034;-71
2023/07/26 00:39:33;;;;;;;8.65;2.15;;;15.70;99.90;;;;;;4996581;28;20033;-71
2023/07/26 00:41:59;;;;;;;1.88;1.50;;;15.70;99.90;;;;;;4996318;28;20083;-71
2023/07/26 00:44:24;;;;;;;2.67;1.52;;;15.70;99.90;;;;;;4996634;28;20026;-71
2023/07/26 00:46:50;;;;;;;6.20;1.48;;;15.80;99.90;;;;;;4997275;28;20053;-71
2023/07/26 00:49:16;;;;;;;1.83;1.52;;;15.90;99.90;;;;;;4996611;28;20022;-71
2023/07/26 00:51:42;;;;;;;5.25;1.50;;;15.80;99.90;;;;;;4997209;28;20029;-71
2023/07/26 00:54:09;;;;;;;2.67;1.45;;;15.80;99.90;;;;;;4999478;28;20027;-71
2023/07/26 00:56:35;;;;;;;4.95;1.42;;;15.70;99.90;;;;;;5000470;28;20035;-71
2023/07/26 00:59:01;;;;;;;3.78;1.77;;;15.70;99.90;;;;;;5000743;28;20022;-71
2023/07/26 01:01:27;;;;;;;4.00;1.95;;;15.60;99.90;;;;;;5000662;28;20026;-71
2023/07/26 01:03:53;;;;;;;3.55;1.60;;;15.50;99.90;;;;;;5000587;28;20034;-71
2023/07/26 01:06:46;;;;;;;1.58;1.20;;;15.50;99.90;;;;;;5001063;28;20027;-71
2023/07/26 01:09:56;;;;;;;1.80;1.45;;;15.40;99.90;;;;;;5000230;28;20085;-71
2023/07/26 01:12:28;;;;;;;3.15;1.02;;;15.30;99.90;;;;;;4960818;28;20054;-71
2023/07/26 01:14:57;;;;;;;6.07;2.00;;;15.30;99.90;;;;;;4961180;29;20036;-71
2023/07/26 01:17:23;;;;;;;3.20;1.70;;;15.30;99.90;;;;;;4944439;29;20027;-71
2023/07/26 01:19:48;;;;;;;6.43;1.38;;;15.30;99.90;;;;;;4944685;29;20023;-71
2023/07/26 01:22:14;;;;;;;2.38;1.60;;;15.20;99.90;;;;;;4944578;29;20038;-71
2023/07/26 01:24:40;;;;;;;1.80;1.30;;;15.10;99.90;;;;;;4960545;29;20031;-71
2023/07/26 01:27:05;;;;;;;3.60;1.85;;;15.00;99.90;;;;;;4944370;29;20019;-71
2023/07/26 01:29:31;;;;;;;4.13;1.50;;;15.00;99.90;;;;;;4944444;29;20062;-71
2023/07/26 01:31:56;;;;;;;5.45;1.30;;;14.90;99.90;;;;;;4944448;29;20042;-71
2023/07/26 01:34:22;;;;;;;2.42;1.30;;;14.80;99.90;;;;;;4961577;29;20074;-71
2023/07/26 01:36:49;;;;;;;3.25;1.70;;;14.80;99.90;;;;;;4944206;29;20070;-71
2023/07/26 01:39:16;;;;;;;7.22;2.47;;;14.80;99.90;;;;;;4944181;29;20067;-71
2023/07/26 01:41:42;;;;;;;4.55;2.20;;;14.90;99.90;;;;;;4944152;29;20031;-71
2023/07/26 01:44:08;;;;;;;3.75;1.73;;;14.80;99.90;;;;;;4944161;29;20034;-71
2023/07/26 01:46:33;;;;;;;5.00;1.40;;;14.70;99.90;;;;;;4944857;28;20114;-71
2023/07/26 01:48:58;;;;;;;5.93;1.40;;;14.70;99.90;;;;;;4999573;28;20150;-71
2023/07/26 01:51:24;;;;;;;1.75;1.55;;;14.60;99.90;;;;;;4999495;28;20025;-71
2023/07/26 01:53:50;;;;;;;2.92;1.90;;;14.60;99.90;;;;;;4999432;28;20148;-71
2023/07/26 01:56:15;;;;;;;2.53;1.45;;;14.50;99.90;;;;;;4999443;28;20027;-71
2023/07/26 01:58:41;;;;;;;3.55;1.38;;;14.50;99.90;;;;;;5000397;28;20030;-71
2023/07/26 02:01:06;;;;;;;4.80;1.60;;;14.40;99.90;;;;;;4999498;28;20030;-71
2023/07/26 02:03:32;;;;;;;4.03;1.50;;;14.50;99.90;;;;;;4999386;28;20023;-71
2023/07/26 02:05:57;;;;;;;6.88;2.15;;;14.50;99.90;;;;;;5000054;28;20057;-71
2023/07/26 02:08:23;;;;;;;2.80;1.73;;;14.50;99.90;;;;;;4999261;28;20081;-71
2023/07/26 02:10:48;;;;;;;4.53;1.60;;;14.50;99.90;;;;;;4999099;28;20022;-71
2023/07/26 02:13:14;;;;;;;4.15;1.90;;;14.40;99.90;;;;;;4999156;28;20033;-71
2023/07/26 02:15:40;;;;;;;4.38;1.95;;;14.30;99.90;;;;;;5000230;28;20034;-71
2023/07/26 02:18:06;;;;;;;3.80;1.55;;;14.40;99.90;;;;;;4999196;28;20065;-71
2023/07/26 02:20:32;;;;;;;6.72;1.98;;;14.40;99.90;;;;;;4999831;28;20033;-71
2023/07/26 02:22:58;;;;;;;5.30;2.00;;;14.40;99.90;;;;;;5000047;28;20026;-71
2023/07/26 02:25:23;;;;;;;5.20;1.58;;;14.40;99.90;;;;;;4998804;28;20026;-71
2023/07/26 02:27:49;;;;;;;4.38;1.70;;;14.40;99.90;;;;;;4998832;28;20030;-71
2023/07/26 02:30:14;;;;;;;4.28;1.73;;;14.40;99.90;;;;;;4999548;28;20095;-71
2023/07/26 02:32:40;;;;;;;3.42;1.70;;;14.30;99.90;;;;;;4999502;28;20030;-71
2023/07/26 02:35:07;;;;;;;3.65;1.80;;;14.30;99.90;;;;;;4998713;28;20034;-71
2023/07/26 02:37:32;;;;;;;7.20;1.88;;;14.20;99.90;;;;;;4998656;28;20033;-71
2023/07/26 02:39:58;;;;;;;4.03;1.40;;;14.10;99.90;;;;;;4999326;28;20027;-71
2023/07/26 02:42:25;;;;;;;4.63;1.95;;;14.10;99.90;;;;;;4998428;28;20026;-71
2023/07/26 02:44:50;;;;;;;4.95;1.73;;;14.00;99.90;;;;;;4999748;28;20052;-71
2023/07/26 02:47:16;;;;;;;3.35;1.70;;;14.00;99.90;;;;;;4999332;28;20026;-71
2023/07/26 02:49:41;;;;;;;2.03;1.65;;;14.00;99.90;;;;;;4998868;28;20121;-71
2023/07/26 02:52:07;;;;;;;2.85;1.63;;;14.00;99.90;;;;;;4998330;28;20018;-71
2023/07/26 02:54:32;;;;;;;4.97;2.05;;;13.90;99.90;;;;;;4998217;28;20053;-70
2023/07/26 02:56:58;;;;;;;4.07;1.70;;;13.90;99.90;;;;;;4998394;28;20023;-71
2023/07/26 02:59:23;;;;;;;4.03;1.58;;;13.90;99.90;;;;;;4998883;28;20030;-71
2023/07/26 03:01:49;;;;;;;5.47;1.60;;;13.90;99.90;;;;;;4998193;28;20058;-71
2023/07/26 03:04:14;;;;;;;6.80;1.52;;;13.90;99.90;;;;;;4999099;28;20023;-71
2023/07/26 03:06:40;;;;;;;4.40;2.00;;;13.90;99.90;;;;;;4998007;28;20041;-71
2023/07/26 03:09:06;;;;;;;1.73;1.48;;;13.90;99.90;;;;;;4998111;28;20050;-71
2023/07/26 03:11:32;;;;;;;2.72;1.38;;;14.00;99.90;;;;;;4998943;28;20069;-71
2023/07/26 03:13:57;;;;;;;6.88;1.73;;;14.00;99.90;;;;;;4997855;28;20098;-71
2023/07/26 03:16:23;;;;;;;3.95;1.48;;;13.80;99.90;;;;;;4997310;28;20022;-71
2023/07/26 03:18:48;;;;;;;7.90;1.77;;;13.80;99.90;;;;;;4998710;28;20029;-71
2023/07/26 03:21:14;;;;;;;4.40;1.75;;;13.90;99.90;;;;;;4998943;28;20023;-71
2023/07/26 03:23:40;;;;;;;4.03;1.77;;;14.20;99.90;;;;;;4998863;28;20030;-71
2023/07/26 03:26:05;;;;;;;3.50;1.58;;;14.50;99.90;;;;;;4997623;28;20029;-71
2023/07/26 03:28:31;;;;;;;3.10;1.60;;;14.50;99.90;;;;;;4997812;28;20030;-71
2023/07/26 03:30:57;;;;;;;2.15;1.48;;;14.70;99.90;;;;;;4997964;28;20026;-71
2023/07/26 03:33:23;;;;;;;4.97;1.80;;;14.70;99.90;;;;;;4998142;28;20026;-71
2023/07/26 03:35:49;;;;;;;3.22;1.83;;;14.60;99.90;;;;;;4997828;28;20026;-71
2023/07/26 03:38:14;;;;;;;5.90;2.15;;;14.50;99.90;;;;;;4997830;28;20033;-71
2023/07/26 03:40:40;;;;;;;3.95;1.90;;;14.50;99.90;;;;;;4997740;28;20037;-71
2023/07/26 03:43:06;;;;;;;8.18;1.70;;;14.60;99.90;;;;;;4997696;28;20028;-71
2023/07/26 03:45:33;;;;;;;5.35;1.73;;;14.60;99.90;;;;;;4997399;28;20175;-71
2023/07/26 03:47:59;;;;;;;8.25;1.70;;;14.50;99.90;;;;;;4997649;28;20030;-71
2023/07/26 03:50:24;;;;;;;2.92;1.90;;;14.50;99.90;;;;;;4997694;28;20023;-71
2023/07/26 03:52:50;;;;;;;4.60;2.03;;;14.50;99.90;;;;;;4997316;28;20022;-71
2023/07/26 03:55:15;;;;;;;3.65;2.10;;;14.30;99.90;;;;;;4998462;28;20038;-71
2023/07/26 03:57:41;;;;;;;2.20;1.83;;;14.20;99.90;;;;;;4997363;28;20018;-71
2023/07/26 04:00:07;;;;;;;3.85;3.20;;;14.10;99.90;;;;;;4997529;28;20230;-71
2023/07/26 04:02:33;;;;;;;2.83;1.95;;;14.10;99.90;;;;;;4996990;28;20026;-71
2023/07/26 04:04:58;;;;;;;4.72;2.10;;;14.00;99.90;;;;;;4996939;28;20026;-71
2023/07/26 04:07:24;;;;;;;4.13;2.10;;;14.10;99.90;;;;;;4996983;28;20034;-71
2023/07/26 04:09:49;;;;;;;2.83;2.10;;;14.00;99.90;;;;;;4997163;28;20072;-71
2023/07/26 04:12:15;;;;;;;3.63;1.90;;;14.10;99.90;;;;;;4996979;28;20053;-71
2023/07/26 04:14:41;;;;;;;3.20;1.90;;;14.10;99.90;;;;;;4997300;28;20089;-71
2023/07/26 04:17:07;;;;;;;3.38;1.90;;;14.10;99.90;;;;;;4997680;28;20030;-71
2023/07/26 04:19:32;;;;;;;4.47;2.05;;;14.10;99.90;;;;;;4997406;28;20029;-71
2023/07/26 04:21:58;;;;;;;6.30;2.70;;;14.00;99.90;;;;;;4997500;28;20121;-71
2023/07/26 04:24:24;;;;;;;5.57;2.50;;;13.90;99.90;;;;;;4997852;28;20026;-71
2023/07/26 04:26:49;;;;;;;4.38;2.28;;;14.10;99.90;;;;;;4996857;28;20022;-71
2023/07/26 04:29:15;;;;;;;4.07;2.13;;;14.20;99.90;;;;;;4997900;28;20030;-71
2023/07/26 04:31:40;;;;;;;4.13;2.15;;;14.10;99.90;;;;;;4997661;28;20078;-72
2023/07/26 04:34:06;;;;;;;6.90;2.85;;;14.00;99.90;;;;;;4997060;28;20029;-71
2023/07/26 04:36:31;;;;;;;4.70;2.83;;;14.00;99.90;;;;;;4997946;28;20030;-72
2023/07/26 04:38:57;;;;;;;5.55;2.33;;;14.00;99.90;;;;;;4997626;28;20030;-71
2023/07/26 04:41:22;;;;;;;3.60;2.40;;;14.00;99.90;;;;;;4997641;28;20066;-71
2023/07/26 04:43:48;;;;;;;6.00;2.10;;;13.90;99.90;;;;;;4996632;28;20058;-71
2023/07/26 04:46:15;;;;;;;6.00;2.45;;;14.00;99.90;;;;;;4996597;28;20026;-71
2023/07/26 04:48:41;;;;;;;4.35;2.40;;;14.00;99.90;;;;;;4996578;28;20022;-71
2023/07/26 04:51:06;;;;;;;3.38;1.98;;;13.90;99.90;;;;;;4997682;28;20037;-71
2023/07/26 04:53:32;;;;;;;3.97;2.25;;;14.00;99.90;;;;;;4996663;28;20113;-71
2023/07/26 04:55:57;;;;;;;3.17;2.25;;;14.00;99.90;;;;;;4997324;28;20030;-71
2023/07/26 04:58:23;;;;;;;5.35;2.30;;;14.00;99.90;;;;;;4996653;28;20030;-71
2023/07/26 05:00:50;;;;;;;5.13;2.25;;;14.00;99.90;;;;;;4997337;28;20053;-71
2023/07/26 05:03:15;;;;;;;6.13;2.20;;;14.00;99.90;;;;;;4996536;28;20058;-72
2023/07/26 05:05:41;;;;;;;3.65;2.03;;;14.00;99.90;;;;;;4997474;28;20027;-72
2023/07/26 05:08:07;;;;;;;4.57;2.53;;;14.00;99.90;;;;;;4996374;28;20022;-72
2023/07/26 05:10:33;;;;;;;6.40;2.72;;;14.00;99.90;;;;;;4996393;28;20031;-71
2023/07/26 05:12:59;;;;;;;6.90;3.20;;;14.00;99.90;;;;;;5019627;23;20034;-74
2023/07/26 05:15:25;;;;;;;6.72;3.03;;;14.00;99.90;;;;;;4997265;28;20033;-74
2023/07/26 05:17:51;;;;;;;4.70;2.33;;;14.00;99.90;;;;;;5013414;28;20057;-74
2023/07/26 05:20:17;;;;;;;7.60;3.08;;;14.10;99.90;;;;;;4997432;28;20030;-74
2023/07/26 05:22:42;;;;;;;4.13;2.47;;;14.10;99.90;;;;;;4996690;28;20030;-74
2023/07/26 05:25:08;;;;;;;3.33;2.65;;;14.10;99.90;;;;;;4997089;28;20022;-74
2023/07/26 05:27:33;;;;;;;4.18;2.42;;;14.00;99.90;;;;;;4996995;28;20045;-74
2023/07/26 05:29:59;;;;;;;6.05;2.60;;;14.10;99.90;;;;;;4996287;28;20019;-74
2023/07/26 05:32:26;;;;;;;3.80;2.53;;;14.10;99.90;;;;;;4997025;28;20061;-74
2023/07/26 05:34:56;;;;;;;3.17;2.45;;;14.00;99.90;;;;;;4996182;28;20097;-69
2023/07/26 05:37:22;;;;;;;4.20;2.60;;;14.00;99.90;;;;;;4996065;28;20049;-69
2023/07/26 05:39:48;;;;;;;5.80;2.35;;;13.90;99.90;;;;;;4997520;28;20026;-69
2023/07/26 05:42:14;;;;;;;6.82;2.33;;;14.00;99.90;;;;;;5000126;28;20030;-74
2023/07/26 05:44:40;;;;;;;7.07;3.28;;;13.90;99.90;;;;;;5000349;28;20094;-74
2023/07/26 05:47:06;;;;;;;10.32;3.28;;;14.00;99.90;;;;;;4999530;28;20025;-74
2023/07/26 05:49:31;;;;;;;8.13;2.90;;;13.90;99.90;;;;;;4999746;28;20162;-74
2023/07/26 05:51:57;;;;;;;6.13;2.85;;;13.80;99.90;;;;;;4999350;28;20053;-74
2023/07/26 05:54:23;;;;;;;5.53;2.95;;;13.80;99.90;;;;;;4999477;28;20023;-74
2023/07/26 05:56:48;;;;;;;4.65;2.90;;;14.00;99.90;;;;;;4999428;28;20029;-74
2023/07/26 05:59:14;;;;;;;4.53;2.53;;;14.10;99.90;;;;;;4999259;28;20061;-74
2023/07/26 06:01:40;;;;;;;6.90;3.13;;;14.10;99.90;;;;;;5000415;28;20030;-75
2023/07/26 06:04:05;;;;;;;4.82;3.03;;;14.20;99.90;;;;;;4999568;28;20018;-74
2023/07/26 06:06:31;;;;;;;4.75;2.60;;;14.10;99.90;;;;;;5000379;28;20038;-74
2023/07/26 06:08:57;;;;;;;12.18;3.20;;;14.10;99.90;;;;;;4999117;28;20109;-74
2023/07/26 06:11:23;;;;;;;3.17;2.63;;;14.20;99.90;;;;;;4999021;28;20084;-74
2023/07/26 06:13:49;;;;;;;6.50;3.35;;;14.20;99.90;;;;;;5000028;28;20026;-74
2023/07/26 06:16:14;;;;;;;3.45;2.80;;;14.20;99.90;;;;;;4999736;28;20180;-74
2023/07/26 06:18:40;;;;;;;4.78;3.08;;;14.40;99.90;;;;;;4999241;28;20061;-75
2023/07/26 06:21:05;;;;;;;5.32;3.80;;;14.50;99.90;;;;;;4999205;28;20030;-74
2023/07/26 06:23:31;;;;;;;6.32;3.55;;;14.70;99.90;;;;;;4999288;28;20026;-70
2023/07/26 06:25:56;;;;;;;7.68;3.60;;;14.80;99.90;;;;;;4999057;28;20026;-69
2023/07/26 06:28:22;;;;;;;5.95;3.20;;;14.90;99.90;;;;;;4999489;28;20019;-69
2023/07/26 06:30:48;;;;;;;4.38;2.70;;;15.10;99.90;;;;;;4998953;28;20027;-69
2023/07/26 06:33:14;;;;;;;6.45;2.85;;;15.10;99.90;;;;;;4999118;28;20023;-69
2023/07/26 06:35:39;;;;;;;8.60;2.90;;;15.10;99.90;;;;;;4998834;28;20080;-69
2023/07/26 06:38:05;;;;;;;10.38;3.80;;;15.20;99.90;;;;;;4999640;28;20026;-74
2023/07/26 06:40:31;;;;;;;5.75;2.42;;;15.30;99.90;;;;;;4999276;28;20034;-74
2023/07/26 06:42:56;;;;;;;5.22;2.72;;;15.40;99.90;;;;;;4998741;28;20030;-74
2023/07/26 06:45:22;;;;;;;3.60;2.75;;;15.50;99.90;;;;;;4999037;28;20026;-74
2023/07/26 06:47:47;;;;;;;4.45;2.50;;;15.60;99.90;;;;;;4999508;28;20030;-74
2023/07/26 06:50:13;;;;;;;11.80;3.10;;;15.70;99.90;;;;;;4998698;28;20018;-74
2023/07/26 06:52:38;;;;;;;5.75;2.28;;;15.70;99.90;;;;;;4998679;28;20114;-74
2023/07/26 06:55:04;;;;;;;4.68;2.45;;;15.80;99.90;;;;;;4999417;28;20045;-74
2023/07/26 06:57:30;;;;;;;3.30;2.00;;;15.90;99.90;;;;;;4998409;28;20027;-74
2023/07/26 06:59:55;;;;;;;4.20;2.40;;;16.00;99.90;;;;;;4998593;28;20030;-74
2023/07/26 07:02:21;;;;;;;3.63;2.38;;;16.00;99.90;;;;;;4998461;28;20030;-74
2023/07/26 07:04:46;;;;;;;3.65;2.00;;;16.00;99.90;;;;;;4998335;28;20026;-74
2023/07/26 07:07:12;;;;;;;5.70;2.55;;;16.10;99.90;;;;;;4998173;28;20049;-74
2023/07/26 07:09:37;;;;;;;3.53;2.60;;;16.20;99.90;;;;;;4998768;28;20033;-74
2023/07/26 07:12:04;;;;;;;4.85;2.40;;;16.30;99.90;;;;;;4998049;28;20034;-74
2023/07/26 07:14:29;;;;;;;3.20;2.30;;;16.30;99.90;;;;;;4998108;28;20030;-74
2023/07/26 07:16:55;;;;;;;7.68;2.50;;;16.40;99.90;;;;;;4998366;28;20023;-74
2023/07/26 07:19:20;;;;;;;3.53;2.47;;;16.40;99.90;;;;;;4998135;28;20022;-74
2023/07/26 07:21:46;;;;;;;3.45;2.30;;;16.40;99.90;;;;;;4997989;28;20031;-74
2023/07/26 07:24:11;;;;;;;3.65;2.40;;;16.40;99.90;;;;;;4998459;28;20037;-74
2023/07/26 07:26:37;;;;;;;7.50;3.13;;;16.50;99.90;;;;;;4997882;28;20026;-74
2023/07/26 07:29:02;;;;;;;4.03;2.17;;;16.50;99.90;;;;;;4998062;28;20030;-74
2023/07/26 07:31:29;;;;;;;5.75;2.42;;;16.50;99.90;;;;;;4998678;28;20033;-73
2023/07/26 07:33:54;;;;;;;4.90;2.28;;;16.50;99.90;;;;;;4997995;28;20045;-74
2023/07/26 07:36:20;;;;;;;3.03;2.35;;;16.50;99.90;;;;;;4997543;28;20026;-74
2023/07/26 07:38:46;;;;;;;5.45;2.75;;;16.40;99.90;;;;;;4997497;28;20022;-75
2023/07/26 07:41:13;;;;;;;4.53;2.33;;;16.20;99.90;;;;;;4998090;28;20031;-77
2023/07/26 07:43:39;;;;;;;4.53;2.15;;;16.30;99.90;;;;;;4997286;28;20061;-79
2023/07/26 07:46:05;;;;;;;5.90;2.17;;;16.40;99.90;;;;;;4997631;28;20049;-79
2023/07/26 07:48:31;;;;;;;4.13;1.70;;;16.50;99.90;;;;;;4998211;28;20090;-78
2023/07/26 07:50:57;;;;;;;3.17;1.40;;;16.70;99.90;;;;;;4997440;28;20050;-75
2023/07/26 07:53:26;;;;;;;6.15;2.08;;;16.70;99.90;;;;;;4997297;28;20053;-78
2023/07/26 07:55:51;;;;;;;5.07;2.10;;;16.80;99.90;;;;;;4997213;28;20030;-81
2023/07/26 07:58:17;;;;;;;2.67;1.88;;;16.90;99.90;;;;;;4997170;28;20035;-76
2023/07/26 08:00:43;;;;;;;5.97;1.92;;;16.90;99.90;;;;;;4997899;28;20026;-77
2023/07/26 08:03:08;;;;;;;2.50;1.90;;;17.00;99.90;;;;;;4997086;28;20027;-74
2023/07/26 08:05:35;;;;;;;3.58;1.75;;;17.00;99.90;;;;;;4997653;28;20108;-74
2023/07/26 08:08:00;;;;;;;6.03;2.25;;;17.00;99.90;;;;;;4997474;28;20023;-75
2023/07/26 08:10:26;;;;;;;4.72;2.30;;;17.10;99.90;;;;;;4997340;28;20033;-79
2023/07/26 08:12:51;;;;;;;2.97;2.08;;;17.10;99.90;;;;;;4997299;28;20038;-77
2023/07/26 08:15:17;;;;;;;3.95;2.00;;;17.10;99.90;;;;;;4997331;28;20026;-75
2023/07/26 08:17:43;;;;;;;5.18;2.28;;;17.10;99.90;;;;;;4997150;28;20152;-78
2023/07/26 08:20:09;;;;;;;3.97;2.15;;;17.20;99.90;;;;;;4997205;28;20022;-74
2023/07/26 08:22:34;;;;;;;6.65;2.10;;;17.20;99.90;;;;;;4996580;28;20031;-77
2023/07/26 08:25:00;;;;;;;5.35;1.92;;;17.20;99.90;;;;;;4997007;28;20049;-74
2023/07/26 08:27:26;;;;;;;4.82;2.30;;;17.30;99.90;;;;;;4996803;28;20023;-75
2023/07/26 08:29:52;;;;;;;4.35;2.03;;;17.40;99.90;;;;;;4996876;28;20042;-74
2023/07/26 08:32:18;;;;;;;3.10;1.98;;;17.50;99.90;;;;;;4997168;28;20025;-74
2023/07/26 08:34:43;;;;;;;4.20;2.03;;;17.70;99.90;;;;;;4996907;28;20023;-74
2023/07/26 08:37:09;;;;;;;6.47;1.50;;;17.80;99.90;;;;;;4996673;28;20025;-74
2023/07/26 08:39:35;;;;;;;3.53;1.63;;;18.00;99.90;;;;;;4996460;28;20065;-73
2023/07/26 08:42:01;;;;;;;2.92;1.40;;;18.00;99.90;;;;;;4997108;28;20019;-73
2023/07/26 08:44:28;;;;;;;3.42;1.80;;;18.20;99.90;;;;;;4997167;28;20160;-73
2023/07/26 08:46:54;;;;;;;3.70;1.50;;;18.30;99.90;;;;;;4996508;28;20030;-73
2023/07/26 08:49:20;;;;;;;4.38;1.65;;;18.40;99.90;;;;;;4996880;28;20113;-73
2023/07/26 08:51:47;;;;;;;1.80;1.40;;;18.50;99.90;;;;;;4996701;28;20109;-75
2023/07/26 08:54:13;;;;;;;5.03;1.65;;;18.50;99.90;;;;;;4996589;28;20029;-73
2023/07/26 08:56:39;;;;;;;4.03;1.40;;;18.40;99.90;;;;;;4996575;28;20145;-73
2023/07/26 08:59:04;;;;;;;4.07;1.42;;;18.40;99.90;;;;;;4997214;28;20034;-74
2023/07/26 09:01:30;;;;;;;3.65;1.40;;;18.30;99.90;;;;;;4996846;28;20049;-75
2023/07/26 09:03:56;;;;;;;2.75;1.75;;;18.30;99.90;;;;;;4996695;28;20113;-74
2023/07/26 09:06:23;;;;;;;3.38;1.98;;;18.30;99.90;;;;;;4996915;28;20106;-74
2023/07/26 09:08:49;;;;;;;2.92;2.25;;;18.20;99.90;;;;;;4996352;28;20026;-74
2023/07/26 09:11:25;;;;;;;3.95;1.70;;;18.20;99.90;;;;;;4996409;28;20030;-74
2023/07/26 09:13:58;;;;;;;3.95;2.22;;;18.20;99.90;;;;;;4997152;28;20015;-74
2023/07/26 09:16:29;;;;;;;4.72;1.65;;;18.40;99.90;;;;;;5000988;28;20022;-75
2023/07/26 09:19:05;;;;;;;2.00;1.70;;;18.50;99.90;;;;;;5000560;28;20033;-75
2023/07/26 09:21:33;;;;;;;4.20;1.77;;;18.60;99.90;;;;;;5000780;28;20026;-75
2023/07/26 09:23:59;;;;;;;3.30;1.70;;;18.70;99.90;;;;;;5000950;28;20096;-75
2023/07/26 09:26:39;;;;;;;5.38;1.70;;;18.80;99.90;;;;;;5000656;28;20026;-74
2023/07/26 09:29:10;;;;;;;1.95;1.70;;;18.80;99.90;;;;;;4999947;28;20050;-74
2023/07/26 09:31:38;;;;;;;3.83;1.33;;;18.90;99.90;;;;;;5000681;28;20049;-74
2023/07/26 09:34:07;;;;;;;2.30;1.65;;;18.90;99.90;;;;;;5000167;28;20035;-74
2023/07/26 09:36:43;;;;;;;2.75;1.77;;;19.10;99.90;;;;;;5000208;28;20030;-74
2023/07/26 09:39:09;;;;;;;4.22;1.55;;;19.30;99.90;;;;;;5000053;28;20026;-74
2023/07/26 09:41:37;;;;;;;5.28;1.42;;;19.30;99.90;;;;;;5000904;28;20129;-74
2023/07/26 09:44:05;;;;;;;1.80;1.50;;;19.40;99.90;;;;;;5000035;28;20071;-74
2023/07/26 09:46:44;;;;;;;2.53;1.38;;;19.40;99.90;;;;;;4999993;28;20030;-74
2023/07/26 09:49:10;;;;;;;3.17;1.35;;;19.40;99.90;;;;;;5000556;28;20050;-72
2023/07/26 09:51:38;;;;;;;2.83;1.30;;;19.30;99.90;;;;;;4999761;28;20037;-71
2023/07/26 09:54:05;;;;;;;2.75;1.65;;;19.30;99.90;;;;;;4999484;28;20058;-72
2023/07/26 09:56:33;;;;;;;2.53;1.40;;;19.10;99.90;;;;;;4999416;28;20076;-72
2023/07/26 09:59:00;;;;;;;3.85;1.40;;;19.00;99.90;;;;;;5000518;28;20037;-72
2023/07/26 10:01:29;;;;;;;3.58;1.65;;;19.00;99.90;;;;;;4999815;28;20033;-72
2023/07/26 10:03:58;;;;;;;1.90;1.60;;;19.00;99.90;;;;;;4999295;28;20031;-72
2023/07/26 10:06:26;;;;;;;3.30;1.42;;;19.00;99.90;;;;;;5000045;28;20113;-72
2023/07/26 10:08:54;;;;;;;1.92;1.50;;;19.00;99.90;;;;;;5000016;28;20022;-72
2023/07/26 10:11:22;;;;;;;2.40;1.42;;;19.10;99.90;;;;;;4999310;28;20026;-72
2023/07/26 10:13:49;;;;;;;3.38;1.73;;;19.00;99.90;;;;;;4999870;28;20018;-72
2023/07/26 10:16:15;;;;;;;2.92;1.88;;;19.00;99.90;;;;;;4999892;28;20061;-72
2023/07/26 10:18:41;;;;;;;5.95;2.47;;;19.00;99.90;;;;;;4999300;28;20026;-72
2023/07/26 10:21:08;;;;;;;6.22;2.03;;;19.00;99.90;;;;;;4999080;28;20030;-72
2023/07/26 10:23:34;;;;;;;4.20;2.20;;;19.10;99.90;;;;;;4999868;28;20023;-72
2023/07/26 10:26:04;;;;;;;5.40;2.50;;;19.00;99.90;;;;;;4998762;28;20030;-72
2023/07/26 10:28:33;;;;;;;6.85;2.30;;;19.00;99.90;;;;;;4998968;28;20053;-72
2023/07/26 10:31:00;;;;;;;2.67;1.75;;;19.00;99.90;;;;;;4998770;28;20030;-71
2023/07/26 10:33:27;;;;;;;3.60;1.65;;;18.90;99.90;;;;;;4999611;28;20049;-72
2023/07/26 10:35:53;;;;;;;5.05;1.77;;;19.00;99.90;;;;;;4999086;28;20049;-72
2023/07/26 10:38:19;;;;;;;2.28;1.60;;;19.10;99.90;;;;;;4999268;28;20026;-71
2023/07/26 10:40:45;;;;;;;3.97;1.60;;;19.20;99.90;;;;;;4998724;28;20027;-72
2023/07/26 10:43:38;;;;;;;5.75;1.90;;;19.10;99.90;;;;;;4998609;28;20053;-72
2023/07/26 10:46:13;;;;;;;4.78;2.17;;;18.90;99.90;;;;;;4996496;28;20040;-72
2023/07/26 10:48:40;;;;;;;11.43;2.30;;;18.60;99.90;;;;;;4998839;28;20026;-72
2023/07/26 10:51:33;;;;;;;3.75;1.85;;;18.00;99.90;;;;;;4999281;28;20073;-73
2023/07/26 10:54:04;;;;;;;3.35;2.13;;;17.40;99.90;;;;;;4998631;28;20073;-73
2023/07/26 10:56:33;;;;;;;7.10;2.65;;;17.10;99.90;;;;;;4999267;28;20027;-74
2023/07/26 10:59:04;;;;;;;6.00;2.80;;;16.80;99.90;;;;;;4998619;28;20036;-74
2023/07/26 11:01:32;;;;;;;;;;;16.70;99.90;;;;;;4999040;28;20030;-74
2023/07/26 11:03:58;;;;;;;5.00;3.67;;;16.90;99.90;;;;;;4998602;28;19913;-76
2023/07/26 11:06:49;;;;;;;6.78;3.55;;;17.50;99.90;;;;;;4998228;28;20030;-75
2023/07/26 11:09:32;;;;;;;4.50;2.15;;;18.00;99.90;;;;;;4999018;28;20018;-75
2023/07/26 11:11:59;;;;;;;5.63;2.88;;;18.10;99.90;;;;;;5021904;23;20040;-68
2023/07/26 11:14:27;;;;;;;5.68;3.20;;;18.10;99.90;;;;;;4998264;28;20081;-68
2023/07/26 11:16:56;;;;;;;5.35;3.15;;;18.20;99.90;;;;;;4997938;28;20031;-68
2023/07/26 11:19:22;;;;;;;4.95;2.58;;;18.20;99.90;;;;;;4998182;28;20027;-68
2023/07/26 11:21:48;;;;;;;3.72;2.45;;;18.20;99.90;;;;;;4998785;28;20030;-68
2023/07/26 11:24:13;;;;;;;3.85;2.90;;;18.10;99.90;;;;;;4998582;28;20030;-68
2023/07/26 11:26:44;;;;;;;4.78;2.50;;;18.10;99.90;;;;;;4997720;28;20029;-68
2023/07/26 11:29:11;;;;;;;8.20;1.90;;;18.10;99.90;;;;;;4998018;28;20046;-67
2023/07/26 11:31:36;;;;;;;4.75;1.73;;;17.80;99.90;;;;;;4998003;28;20030;-67
2023/07/26 11:34:14;;;;;;;1.30;1.20;;;17.50;99.90;;;;;;4997683;28;20052;-69
2023/07/26 11:36:40;;;;;;;4.47;1.00;;;17.30;99.90;;;;;;4998105;28;20101;-70
2023/07/26 11:39:06;;;;;;;3.85;1.05;;;17.60;99.90;;;;;;4997705;28;20026;-70
2023/07/26 11:41:33;;;;;;;3.58;1.50;;;17.90;99.90;;;;;;4997593;28;20030;-70
2023/07/26 11:43:59;;;;;;;2.35;1.73;;;17.90;99.90;;;;;;4998284;28;20018;-70
2023/07/26 11:46:29;;;;;;;2.15;1.48;;;18.10;99.90;;;;;;4997644;28;20034;-70
2023/07/26 11:48:54;;;;;;;4.65;1.20;;;18.50;99.90;;;;;;4997378;28;20033;-69
2023/07/26 11:51:20;;;;;;;2.78;0.95;;;19.20;99.90;;;;;;4998466;28;20023;-70
2023/07/26 11:53:47;;;;;;;1.23;1.10;;;19.60;99.90;;;;;;4997361;28;20030;-70
2023/07/26 11:56:14;;;;;;;1.98;1.15;;;20.20;99.90;;;;;;4997956;28;20033;-67
2023/07/26 11:58:41;;;;;;;1.35;1.17;;;20.90;99.90;;;;;;4997249;28;20034;-67
2023/07/26 12:01:07;;;;;;;3.47;1.30;;;21.40;99.90;;;;;;4998188;28;20030;-67
2023/07/26 12:03:32;;;;;;;1.33;1.00;;;22.10;99.90;;;;;;4997120;28;20057;-67
2023/07/26 12:05:58;;;;;;;4.28;1.13;;;22.30;99.90;;;;;;4996919;28;20072;-67
2023/07/26 12:08:27;;;;;;;1.63;1.05;;;22.00;99.90;;;;;;4998307;28;20086;-67
2023/07/26 12:10:53;;;;;;;1.20;0.90;;;21.30;99.90;;;;;;4996992;28;20026;-67
2023/07/26 12:13:21;;;;;;;2.28;0.95;;;20.80;99.90;;;;;;4997159;28;20110;-67
2023/07/26 12:15:59;;;;;;;1.20;0.95;;;20.80;99.90;;;;;;4996989;28;20049;-67
2023/07/26 12:18:25;;;;;;;2.40;1.30;;;21.00;99.90;;;;;;4998054;28;20026;-67
2023/07/26 12:20:58;;;;;;;2.20;1.20;;;21.20;99.90;;;;;;4996849;28;20023;-67
2023/07/26 12:23:25;;;;;;;1.60;1.00;;;21.30;99.90;;;;;;4997848;28;20023;-67
2023/07/26 12:25:53;;;;;;;2.00;1.25;;;21.40;99.90;;;;;;4997842;28;20030;-67
2023/07/26 12:28:18;;;;;;;3.10;1.20;;;21.40;99.90;;;;;;4997646;28;20030;-67
2023/07/26 12:30:54;;;;;;;3.70;0.95;;;21.70;99.90;;;;;;4997681;28;20023;-67
2023/07/26 12:33:21;;;;;;;1.63;1.20;;;22.20;99.90;;;;;;4997437;28;20045;-67
2023/07/26 12:35:47;;;;;;;2.05;1.10;;;22.60;99.90;;;;;;4996628;28;20032;-67
2023/07/26 12:38:23;;;;;;;4.18;1.48;;;23.10;99.90;;;;;;4997323;28;20026;-67
2023/07/26 12:40:50;;;;;;;2.70;1.70;;;23.60;99.90;;;;;;4997562;28;20030;-67
2023/07/26 12:43:27;;;;;;;3.00;2.08;;;23.90;99.90;;;;;;4996704;28;20023;-67
2023/07/26 12:46:03;;;;;;;1.35;1.15;;;24.00;99.90;;;;;;4997531;28;20081;-67